Time;durP1;ratioP1;P1;durP2;ratioP2;P2;SDS_P1;SDS_P2;PMS_P1;PMS_P2;Temp;Humidity;BMP_temperature;BMP_pressure;BME280_temperature;BME280_humidity;BME280_pressure;Samples;Min_cycle;Max_cycle;Signal;HPM_P1;HPM_P2
2024/02/01 00:02:32;;;;;;;6.43;3.97;;;8.50;93.10;;;;;;6240578;23;20260;-68
2024/02/01 00:05:18;;;;;;;6.22;4.05;;;8.60;93.10;;;;;;6241564;23;20033;-66
2024/02/01 00:08:05;;;;;;;6.53;4.22;;;8.60;93.20;;;;;;6242289;23;20460;-66
2024/02/01 00:10:51;;;;;;;5.65;3.70;;;8.50;93.10;;;;;;6241790;23;20008;-66
2024/02/01 00:13:37;;;;;;;6.90;4.00;;;8.50;93.10;;;;;;6239949;23;20019;-66
2024/02/01 00:16:24;;;;;;;6.88;3.85;;;8.50;93.10;;;;;;6239964;22;20369;-67
2024/02/01 00:19:10;;;;;;;8.30;4.25;;;8.50;93.10;;;;;;6240293;23;20425;-67
2024/02/01 00:21:56;;;;;;;7.95;4.35;;;8.50;93.10;;;;;;6242213;23;20008;-66
2024/02/01 00:24:42;;;;;;;6.05;4.35;;;8.50;93.10;;;;;;6240349;23;20553;-66
2024/02/01 00:27:28;;;;;;;9.15;4.38;;;8.40;93.10;;;;;;6242225;23;20058;-67
2024/02/01 00:30:14;;;;;;;6.93;4.70;;;8.40;93.10;;;;;;6241939;23;20433;-66
2024/02/01 00:33:00;;;;;;;7.00;4.90;;;8.40;93.10;;;;;;6240964;23;20087;-66
2024/02/01 00:35:46;;;;;;;7.35;5.07;;;8.40;93.10;;;;;;6241764;23;20337;-66
2024/02/01 00:38:32;;;;;;;5.82;3.90;;;8.40;93.10;;;;;;6241477;23;20008;-67
2024/02/01 00:41:18;;;;;;;10.48;4.38;;;8.40;93.10;;;;;;6240431;23;20008;-66
2024/02/01 00:44:04;;;;;;;8.20;4.80;;;8.40;93.00;;;;;;6239486;23;20023;-68
2024/02/01 00:46:50;;;;;;;6.72;4.40;;;8.40;93.10;;;;;;6240050;23;20039;-69
2024/02/01 00:49:36;;;;;;;6.45;4.78;;;8.40;93.10;;;;;;6240666;23;20326;-69
2024/02/01 00:52:22;;;;;;;5.78;4.20;;;8.40;93.10;;;;;;6239566;23;20012;-69
2024/02/01 00:55:08;;;;;;;5.85;4.40;;;8.40;93.10;;;;;;6240532;23;20012;-69
2024/02/01 00:57:54;;;;;;;7.70;4.90;;;8.40;93.10;;;;;;6240483;23;20046;-67
2024/02/01 01:00:40;;;;;;;7.15;4.38;;;8.40;93.10;;;;;;6240219;23;20012;-67
2024/02/01 01:03:26;;;;;;;6.22;4.20;;;8.40;93.00;;;;;;6239765;23;20023;-66
2024/02/01 01:06:12;;;;;;;6.50;4.00;;;8.40;93.00;;;;;;6239331;23;20092;-66
2024/02/01 01:08:58;;;;;;;7.22;4.20;;;8.40;93.00;;;;;;6239777;23;20349;-67
2024/02/01 01:11:44;;;;;;;6.80;3.88;;;8.40;93.00;;;;;;6240449;23;20040;-66
2024/02/01 01:14:30;;;;;;;7.45;4.80;;;8.40;93.00;;;;;;6240163;23;20045;-66
2024/02/01 01:17:16;;;;;;;5.20;3.92;;;8.50;93.00;;;;;;6241051;23;20016;-66
2024/02/01 01:20:03;;;;;;;7.53;5.20;;;8.50;93.00;;;;;;6239843;23;20015;-66
2024/02/01 01:22:49;;;;;;;6.72;4.88;;;8.50;93.00;;;;;;6240259;23;20013;-66
2024/02/01 01:25:35;;;;;;;6.07;4.25;;;8.50;93.00;;;;;;6240947;23;20015;-66
2024/02/01 01:28:21;;;;;;;6.15;4.80;;;8.50;93.00;;;;;;6239686;23;20015;-66
2024/02/01 01:31:07;;;;;;;6.15;4.50;;;8.50;93.00;;;;;;6240263;23;20004;-67
2024/02/01 01:33:53;;;;;;;7.10;5.28;;;8.50;92.90;;;;;;6241082;23;20012;-68
2024/02/01 01:36:39;;;;;;;6.85;4.60;;;8.50;92.90;;;;;;6219791;23;20047;-68
2024/02/01 01:39:25;;;;;;;6.93;4.55;;;8.50;92.90;;;;;;6240246;23;20051;-67
2024/02/01 01:42:11;;;;;;;5.40;4.10;;;8.50;92.90;;;;;;6239712;23;20012;-67
2024/02/01 01:44:57;;;;;;;6.47;4.05;;;8.50;92.90;;;;;;6241084;23;20317;-68
2024/02/01 01:47:43;;;;;;;6.68;4.65;;;8.50;92.80;;;;;;6219837;23;20000;-68
2024/02/01 01:50:30;;;;;;;5.85;4.35;;;8.50;92.80;;;;;;6240119;23;20047;-67
2024/02/01 01:53:15;;;;;;;6.63;5.32;;;8.50;92.80;;;;;;6239729;23;20032;-68
2024/02/01 01:56:02;;;;;;;6.82;5.05;;;8.50;92.80;;;;;;6240424;23;20503;-68
2024/02/01 01:58:49;;;;;;;6.18;4.45;;;8.50;92.80;;;;;;6240131;23;20098;-68
2024/02/01 02:01:37;;;;;;;5.68;4.38;;;8.50;92.80;;;;;;6243876;23;20448;-68
2024/02/01 02:04:23;;;;;;;6.65;4.93;;;8.60;92.90;;;;;;6243050;23;20077;-68
2024/02/01 02:07:09;;;;;;;6.15;4.38;;;8.60;92.90;;;;;;6241902;23;20472;-67
2024/02/01 02:10:00;;;;;;;6.63;4.50;;;8.50;92.80;;;;;;6242948;23;20004;-67
2024/02/01 02:12:46;;;;;;;6.80;4.13;;;8.50;92.80;;;;;;6241500;23;20012;-69
2024/02/01 02:15:32;;;;;;;6.82;4.53;;;8.50;92.80;;;;;;6241764;23;20012;-68
2024/02/01 02:18:18;;;;;;;6.90;4.07;;;8.50;92.90;;;;;;6221530;23;20449;-67
2024/02/01 02:21:05;;;;;;;6.03;4.47;;;8.50;92.90;;;;;;6242725;23;20008;-67
2024/02/01 02:23:51;;;;;;;7.65;4.30;;;8.50;92.90;;;;;;6242250;23;20070;-68
2024/02/01 02:26:37;;;;;;;7.18;4.90;;;8.50;92.90;;;;;;6221201;23;20035;-66
2024/02/01 02:29:23;;;;;;;5.35;4.00;;;8.50;92.90;;;;;;6241963;23;20154;-66
2024/02/01 02:32:09;;;;;;;6.68;4.22;;;8.50;93.00;;;;;;6243729;23;20020;-67
2024/02/01 02:34:55;;;;;;;8.38;4.75;;;8.50;93.10;;;;;;6242123;23;20210;-67
2024/02/01 02:37:48;;;;;;;6.82;4.35;;;8.50;93.30;;;;;;6240931;23;20004;-67
2024/02/01 02:40:34;;;;;;;6.65;4.80;;;8.50;93.60;;;;;;6242715;23;20429;-67
2024/02/01 02:43:20;;;;;;;6.55;4.75;;;8.50;93.70;;;;;;6240802;23;20357;-68
2024/02/01 02:46:06;;;;;;;6.97;4.25;;;8.40;93.80;;;;;;6241706;23;20015;-67
2024/02/01 02:48:52;;;;;;;6.70;4.82;;;8.40;94.00;;;;;;6241491;23;20340;-67
2024/02/01 02:51:39;;;;;;;7.95;4.63;;;8.40;94.30;;;;;;6241883;23;20004;-68
2024/02/01 02:54:25;;;;;;;6.57;4.82;;;8.40;94.50;;;;;;6243211;23;20087;-68
2024/02/01 02:57:11;;;;;;;8.43;4.72;;;8.30;94.60;;;;;;6241596;23;20031;-68
2024/02/01 02:59:56;;;;;;;7.85;5.03;;;8.30;94.70;;;;;;6241799;23;20008;-68
2024/02/01 03:02:42;;;;;;;7.65;5.05;;;8.30;94.90;;;;;;6241399;23;20019;-68
2024/02/01 03:05:28;;;;;;;5.38;4.03;;;8.30;95.00;;;;;;6243493;23;20389;-68
2024/02/01 03:08:14;;;;;;;6.60;4.47;;;8.30;95.20;;;;;;6241915;23;20344;-68
2024/02/01 03:11:01;;;;;;;7.18;4.47;;;8.20;95.30;;;;;;6242098;23;20019;-66
2024/02/01 03:13:47;;;;;;;6.20;4.55;;;8.20;95.40;;;;;;6242095;23;20376;-67
2024/02/01 03:16:33;;;;;;;7.68;4.82;;;8.20;95.60;;;;;;6241346;22;20020;-67
2024/02/01 03:19:18;;;;;;;9.07;4.88;;;8.20;95.70;;;;;;6239530;23;20040;-67
2024/02/01 03:22:05;;;;;;;7.60;4.78;;;8.20;95.80;;;;;;6243243;23;20004;-67
2024/02/01 03:24:58;;;;;;;5.65;4.53;;;8.20;95.90;;;;;;6247279;23;20064;-67
2024/02/01 03:27:44;;;;;;;7.03;4.85;;;8.20;96.00;;;;;;6248401;23;20011;-69
2024/02/01 03:30:37;;;;;;;6.90;4.32;;;8.20;96.20;;;;;;6220627;23;20091;-68
2024/02/01 03:33:23;;;;;;;7.95;4.40;;;8.20;96.30;;;;;;6242091;23;20008;-68
2024/02/01 03:36:09;;;;;;;5.95;4.47;;;8.20;96.40;;;;;;6241381;23;20019;-69
2024/02/01 03:38:55;;;;;;;7.43;4.25;;;8.20;96.50;;;;;;6241220;23;20004;-69
2024/02/01 03:41:41;;;;;;;8.30;4.50;;;8.10;96.50;;;;;;6241076;23;20126;-69
2024/02/01 03:44:27;;;;;;;6.88;5.20;;;8.10;96.70;;;;;;6241477;23;20024;-69
2024/02/01 03:47:13;;;;;;;6.78;4.47;;;8.10;96.80;;;;;;6243370;23;20004;-68
2024/02/01 03:49:59;;;;;;;8.82;5.15;;;8.00;96.90;;;;;;6241222;23;20374;-68
2024/02/01 03:52:45;;;;;;;8.90;4.80;;;8.10;97.10;;;;;;6240456;23;20039;-68
2024/02/01 03:55:31;;;;;;;7.03;4.63;;;8.00;97.10;;;;;;6241017;23;20307;-68
2024/02/01 03:58:17;;;;;;;6.32;4.55;;;8.00;97.20;;;;;;6241270;23;20008;-68
2024/02/01 04:01:03;;;;;;;7.85;4.28;;;8.00;97.30;;;;;;6241124;23;20008;-67
2024/02/01 04:03:49;;;;;;;7.47;4.88;;;8.10;97.40;;;;;;6242262;23;20024;-67
2024/02/01 04:06:36;;;;;;;6.20;4.32;;;8.00;97.50;;;;;;6241301;23;20008;-68
2024/02/01 04:09:24;;;;;;;6.68;4.47;;;8.00;97.60;;;;;;6242743;23;20322;-68
2024/02/01 04:12:10;;;;;;;6.25;4.55;;;8.00;97.60;;;;;;6240712;23;20008;-68
2024/02/01 04:14:57;;;;;;;9.20;5.50;;;8.00;97.70;;;;;;6241506;23;20070;-68
2024/02/01 04:17:43;;;;;;;6.63;4.72;;;8.00;97.80;;;;;;6240957;23;20023;-67
2024/02/01 04:20:30;;;;;;;7.22;5.22;;;7.90;97.90;;;;;;6240853;23;20015;-68
2024/02/01 04:23:16;;;;;;;6.50;5.03;;;7.90;98.00;;;;;;6241450;23;20051;-67
2024/02/01 04:26:02;;;;;;;8.00;5.20;;;7.90;98.10;;;;;;6241056;23;20012;-68
2024/02/01 04:28:51;;;;;;;8.63;5.40;;;7.90;98.20;;;;;;6240969;23;20555;-68
2024/02/01 04:31:38;;;;;;;8.85;5.85;;;8.00;98.30;;;;;;6219531;23;20004;-68
2024/02/01 04:34:23;;;;;;;8.48;4.97;;;8.00;98.30;;;;;;6240151;23;20012;-68
2024/02/01 04:37:12;;;;;;;7.55;5.32;;;7.90;98.40;;;;;;6241637;23;20008;-68
2024/02/01 04:40:03;;;;;;;7.68;5.18;;;7.90;98.40;;;;;;6240682;23;20008;-68
2024/02/01 04:42:52;;;;;;;8.90;5.18;;;8.00;98.50;;;;;;6241154;23;20088;-68
2024/02/01 04:45:39;;;;;;;7.70;5.50;;;8.00;98.60;;;;;;6242598;23;20030;-68
2024/02/01 04:48:26;;;;;;;6.85;5.07;;;8.00;98.60;;;;;;6241096;23;20008;-69
2024/02/01 04:51:12;;;;;;;7.28;5.57;;;8.00;98.70;;;;;;6239251;23;20483;-67
2024/02/01 04:53:58;;;;;;;10.68;5.53;;;8.00;98.80;;;;;;6240908;23;20012;-68
2024/02/01 04:56:44;;;;;;;7.22;5.45;;;8.00;98.80;;;;;;6240691;23;20016;-69
2024/02/01 04:59:31;;;;;;;7.13;5.35;;;8.00;98.90;;;;;;6241087;23;20483;-69
2024/02/01 05:02:17;;;;;;;9.35;6.05;;;8.00;99.00;;;;;;6241758;23;20047;-68
2024/02/01 05:05:04;;;;;;;7.55;5.55;;;7.90;99.00;;;;;;6242422;23;20019;-68
2024/02/01 05:07:50;;;;;;;10.00;6.22;;;8.00;99.10;;;;;;6239622;23;20096;-68
2024/02/01 05:10:37;;;;;;;9.57;6.03;;;7.90;99.30;;;;;;6239459;23;20487;-67
2024/02/01 05:13:23;;;;;;;10.18;6.40;;;8.00;99.40;;;;;;6240557;23;20004;-68
2024/02/01 05:16:09;;;;;;;7.40;6.03;;;8.00;99.40;;;;;;6239281;23;20008;-69
2024/02/01 05:18:55;;;;;;;8.52;5.53;;;8.00;99.50;;;;;;6240808;23;20095;-68
2024/02/01 05:21:41;;;;;;;8.20;5.68;;;8.00;99.60;;;;;;6242750;23;20320;-69
2024/02/01 05:24:28;;;;;;;6.88;5.68;;;8.00;99.60;;;;;;6240381;23;20457;-68
2024/02/01 05:27:14;;;;;;;9.60;6.25;;;8.00;99.70;;;;;;6239990;23;20391;-68
2024/02/01 05:30:00;;;;;;;8.20;6.25;;;8.00;99.80;;;;;;6240594;23;20066;-68
2024/02/01 05:32:53;;;;;;;11.13;6.35;;;8.00;99.90;;;;;;6240797;23;20263;-68
2024/02/01 05:35:39;;;;;;;8.23;6.00;;;8.10;99.90;;;;;;6241857;23;20043;-68
2024/02/01 05:38:25;;;;;;;8.30;6.55;;;8.10;99.90;;;;;;6238792;23;20008;-68
2024/02/01 05:41:13;;;;;;;9.82;6.40;;;8.10;99.90;;;;;;6240337;23;20016;-68
2024/02/01 05:43:59;;;;;;;7.32;5.85;;;8.10;99.90;;;;;;6240661;23;20020;-68
2024/02/01 05:46:49;;;;;;;8.07;5.93;;;8.10;99.90;;;;;;6240632;23;20012;-69
2024/02/01 05:49:36;;;;;;;7.53;6.28;;;8.20;99.90;;;;;;6240074;23;20031;-69
2024/02/01 05:52:22;;;;;;;7.85;5.82;;;8.20;99.90;;;;;;6240109;23;20123;-68
2024/02/01 05:55:10;;;;;;;8.88;6.45;;;8.20;99.90;;;;;;6239574;23;20077;-68
2024/02/01 05:57:56;;;;;;;8.60;6.55;;;8.20;99.90;;;;;;6241126;23;20047;-69
2024/02/01 06:00:42;;;;;;;8.15;5.60;;;8.20;99.90;;;;;;6241421;23;20020;-69
2024/02/01 06:03:29;;;;;;;11.00;6.85;;;8.20;99.90;;;;;;6241316;23;20016;-66
2024/02/01 06:06:15;;;;;;;7.97;6.45;;;8.20;99.90;;;;;;6240545;23;20035;-71
2024/02/01 06:09:00;;;;;;;8.15;6.78;;;8.20;99.90;;;;;;6240090;23;20008;-72
2024/02/01 06:11:48;;;;;;;10.23;7.45;;;8.20;99.90;;;;;;6238785;23;20004;-74
2024/02/01 06:14:35;;;;;;;8.65;6.85;;;8.30;99.90;;;;;;6240108;23;20012;-67
2024/02/01 06:17:21;;;;;;;8.90;6.88;;;8.30;99.90;;;;;;6219991;23;20164;-67
2024/02/01 06:20:09;;;;;;;9.57;7.07;;;8.30;99.90;;;;;;6240326;23;20015;-67
2024/02/01 06:22:55;;;;;;;8.50;6.97;;;8.30;99.90;;;;;;6219101;23;20091;-66
2024/02/01 06:25:41;;;;;;;9.10;6.95;;;8.40;99.90;;;;;;6242103;23;20020;-67
2024/02/01 06:28:28;;;;;;;10.57;6.63;;;8.40;99.90;;;;;;6216868;23;20095;-66
2024/02/01 06:31:14;;;;;;;9.35;7.22;;;8.40;99.90;;;;;;6238856;23;20087;-66
2024/02/01 06:33:59;;;;;;;10.77;6.82;;;8.40;99.90;;;;;;6239987;23;20437;-67
2024/02/01 06:36:53;;;;;;;10.27;7.18;;;8.40;99.90;;;;;;6239749;23;20012;-67
2024/02/01 06:39:58;;;;;;;7.22;6.38;;;8.40;99.90;;;;;;6239965;23;20004;-66
2024/02/01 06:43:09;;;;;;;8.97;6.73;;;8.40;99.90;;;;;;6239465;23;20019;-63
2024/02/01 06:46:01;;;;;;;9.45;7.68;;;8.40;99.90;;;;;;6220056;23;20260;-64
2024/02/01 06:48:51;;;;;;;10.10;7.28;;;8.40;99.90;;;;;;6242019;23;20034;-64
2024/02/01 06:51:40;;;;;;;9.32;6.93;;;8.40;99.90;;;;;;6241664;23;20008;-64
2024/02/01 06:54:39;;;;;;;14.18;7.80;;;8.40;99.90;;;;;;6242904;23;20014;-64
2024/02/01 06:57:44;;;;;;;9.00;7.07;;;8.50;99.90;;;;;;6242928;23;20016;-64
2024/02/01 07:00:50;;;;;;;8.33;6.77;;;8.40;99.90;;;;;;6241878;23;20034;-64
2024/02/01 07:03:51;;;;;;;9.73;7.57;;;8.50;99.90;;;;;;6241044;23;20441;-64
2024/02/01 07:06:39;;;;;;;10.07;7.55;;;8.50;99.90;;;;;;6241579;23;20008;-63
2024/02/01 07:09:27;;;;;;;8.80;7.28;;;8.50;99.90;;;;;;6243002;23;20016;-64
2024/02/01 07:12:29;;;;;;;8.18;6.63;;;8.50;99.90;;;;;;6241339;23;20437;-62
2024/02/01 07:18:15;;;;;;;8.45;6.63;;;8.60;99.90;;;;;;6239017;23;20465;-63
2024/02/01 07:21:09;;;;;;;9.85;7.03;;;8.60;99.90;;;;;;6238563;23;20008;-63
2024/02/01 07:24:17;;;;;;;10.57;7.60;;;8.70;99.90;;;;;;6242885;23;20016;-63
2024/02/01 07:57:51;;;;;;;9.55;6.13;;;8.90;99.90;;;;;;6239639;23;20433;-63
2024/02/01 08:00:45;;;;;;;9.05;7.22;;;8.90;99.90;;;;;;6239467;23;20008;-62
2024/02/01 08:03:55;;;;;;;8.88;6.82;;;8.90;99.90;;;;;;6242060;23;20047;-63
2024/02/01 08:09:58;;;;;;;8.18;6.28;;;8.90;99.90;;;;;;6203451;23;20018;-63
2024/02/01 08:12:46;;;;;;;8.88;5.78;;;8.90;99.90;;;;;;6239714;23;20004;-63
2024/02/01 08:15:32;;;;;;;8.73;6.97;;;9.00;99.90;;;;;;6238559;23;20229;-63
2024/02/01 08:18:19;;;;;;;8.35;6.15;;;9.00;99.90;;;;;;6238858;23;20028;-63
2024/02/01 08:21:14;;;;;;;6.72;4.75;;;9.10;99.90;;;;;;6241896;23;20459;-63
2024/02/01 08:24:00;;;;;;;6.32;4.25;;;9.10;99.90;;;;;;6240623;23;20379;-63
2024/02/01 08:26:47;;;;;;;6.82;5.20;;;9.00;99.90;;;;;;6239843;23;20567;-63
2024/02/01 08:29:36;;;;;;;9.20;5.93;;;9.00;99.90;;;;;;6236096;23;20356;-63
2024/02/01 08:32:22;;;;;;;11.30;4.88;;;9.00;99.90;;;;;;6241008;23;20004;-63
2024/02/01 08:35:10;;;;;;;8.90;4.50;;;9.00;99.90;;;;;;6239744;23;20086;-63
2024/02/01 08:37:56;;;;;;;9.55;5.60;;;8.90;99.90;;;;;;6240722;23;20083;-63
2024/02/01 08:40:42;;;;;;;8.43;4.40;;;8.90;99.90;;;;;;6242320;23;20012;-63
2024/02/01 08:43:28;;;;;;;7.30;5.45;;;8.90;99.90;;;;;;6239332;23;20020;-63
2024/02/01 08:46:14;;;;;;;8.65;4.30;;;8.80;99.90;;;;;;6237816;23;20044;-63
2024/02/01 08:48:59;;;;;;;7.45;4.10;;;8.80;99.90;;;;;;6237732;23;20016;-62
2024/02/01 08:51:45;;;;;;;9.35;5.10;;;8.80;99.90;;;;;;6239964;23;20083;-61
2024/02/01 08:54:31;;;;;;;9.85;4.80;;;8.70;99.90;;;;;;6239069;23;20018;-63
2024/02/01 08:57:17;;;;;;;6.88;4.75;;;8.70;99.90;;;;;;6241089;23;20004;-63
2024/02/01 09:00:21;;;;;;;11.85;6.05;;;8.70;99.90;;;;;;6241722;23;20014;-63
2024/02/01 09:06:04;;;;;;;8.27;4.72;;;8.80;99.90;;;;;;6240690;23;20066;-63
2024/02/01 09:08:50;;;;;;;6.90;4.78;;;8.80;99.90;;;;;;6239107;23;20008;-62
2024/02/01 09:11:36;;;;;;;7.60;5.28;;;8.80;99.90;;;;;;6240131;23;20011;-63
2024/02/01 09:14:23;;;;;;;8.48;4.90;;;8.80;99.90;;;;;;6240219;23;20004;-62
2024/02/01 09:17:09;;;;;;;9.40;3.95;;;8.80;99.90;;;;;;6239699;23;20024;-63
2024/02/01 09:19:55;;;;;;;10.88;3.92;;;8.80;99.90;;;;;;6240658;23;20445;-64
2024/02/01 09:22:41;;;;;;;6.72;4.28;;;8.90;99.90;;;;;;6240201;23;20433;-63
2024/02/01 09:25:27;;;;;;;7.93;3.72;;;8.90;99.90;;;;;;6239766;23;20012;-62
2024/02/01 09:28:13;;;;;;;9.32;3.67;;;8.90;99.90;;;;;;6238740;23;20111;-62
2024/02/01 09:30:59;;;;;;;7.22;3.53;;;8.90;99.90;;;;;;6239310;23;20004;-62
2024/02/01 09:33:46;;;;;;;7.82;3.20;;;9.00;99.90;;;;;;6240164;23;20014;-62
2024/02/01 09:36:33;;;;;;;7.32;3.20;;;8.90;99.90;;;;;;6241645;23;20040;-63
2024/02/01 09:39:19;;;;;;;7.47;2.75;;;8.90;99.90;;;;;;6240523;23;20013;-63
2024/02/01 09:42:11;;;;;;;13.43;3.30;;;9.00;99.90;;;;;;6242082;23;20004;-62
2024/02/01 09:44:58;;;;;;;8.02;3.38;;;9.00;99.90;;;;;;6239972;23;20045;-61
2024/02/01 09:47:46;;;;;;;7.70;3.38;;;9.00;99.90;;;;;;6241893;23;20083;-61
2024/02/01 09:50:32;;;;;;;10.48;3.75;;;9.00;99.90;;;;;;6241971;23;20565;-62
2024/02/01 09:53:22;;;;;;;8.60;3.50;;;9.00;99.80;;;;;;6239612;23;20018;-61
2024/02/01 09:56:08;;;;;;;10.75;3.47;;;9.00;99.60;;;;;;6218158;23;20073;-62
2024/02/01 09:58:58;;;;;;;7.32;3.47;;;9.00;99.40;;;;;;6238587;23;20016;-62
2024/02/01 10:01:44;;;;;;;10.18;3.58;;;9.00;99.30;;;;;;6238688;23;20360;-62
2024/02/01 10:04:30;;;;;;;8.27;2.72;;;9.00;99.10;;;;;;6242233;23;20024;-62
2024/02/01 10:07:16;;;;;;;7.80;3.58;;;9.10;98.90;;;;;;6238883;23;20012;-62
2024/02/01 10:10:04;;;;;;;8.93;3.33;;;9.10;98.80;;;;;;6239964;23;20016;-63
2024/02/01 10:12:58;;;;;;;9.85;3.28;;;9.10;98.60;;;;;;6239830;23;20440;-62
2024/02/01 10:15:46;;;;;;;8.30;3.35;;;9.10;98.40;;;;;;6238631;23;20008;-62
2024/02/01 10:18:32;;;;;;;12.55;3.10;;;9.10;98.30;;;;;;6240180;23;20028;-62
2024/02/01 10:21:22;;;;;;;11.15;3.20;;;9.10;98.10;;;;;;6240129;23;20040;-62
2024/02/01 10:24:10;;;;;;;7.68;2.95;;;9.10;97.70;;;;;;6220379;23;20030;-61
2024/02/01 10:27:05;;;;;;;10.75;3.60;;;9.20;97.50;;;;;;6240932;23;20083;-62
2024/02/01 10:29:51;;;;;;;6.30;2.55;;;9.20;97.40;;;;;;6240389;23;20429;-62
2024/02/01 10:32:43;;;;;;;11.68;2.92;;;9.30;97.50;;;;;;6240186;23;20456;-62
2024/02/01 10:35:32;;;;;;;9.23;3.45;;;9.30;97.30;;;;;;6240922;23;20433;-61
2024/02/01 10:38:26;;;;;;;8.77;2.10;;;9.40;97.30;;;;;;6220041;23;20008;-61
2024/02/01 10:41:15;;;;;;;8.77;2.28;;;9.40;97.00;;;;;;6243551;23;20534;-62
2024/02/01 10:44:04;;;;;;;11.60;4.15;;;9.40;96.80;;;;;;6242502;23;20440;-62
2024/02/01 10:46:55;;;;;;;10.52;2.83;;;9.40;96.40;;;;;;6240198;23;20442;-62
2024/02/01 10:49:52;;;;;;;8.63;3.58;;;9.40;96.40;;;;;;6243321;23;20039;-62
2024/02/01 10:52:39;;;;;;;7.25;2.20;;;9.40;96.40;;;;;;6243256;23;20016;-62
2024/02/01 10:55:26;;;;;;;8.20;2.85;;;9.50;95.80;;;;;;6242355;23;20019;-61
2024/02/01 10:58:12;;;;;;;8.73;3.00;;;9.50;95.90;;;;;;6242530;23;20392;-61
2024/02/01 11:00:58;;;;;;;6.93;3.28;;;9.60;95.90;;;;;;6241631;22;20495;-62
2024/02/01 11:04:09;;;;;;;8.05;2.95;;;9.60;95.80;;;;;;6240429;23;20106;-61
2024/02/01 11:06:54;;;;;;;11.82;3.58;;;9.70;95.80;;;;;;6243087;23;20091;-62
2024/02/01 11:09:43;;;;;;;9.27;2.70;;;9.80;95.60;;;;;;6242071;23;20062;-62
2024/02/01 11:12:29;;;;;;;9.63;2.85;;;9.80;95.50;;;;;;6240430;23;20000;-62
2024/02/01 11:15:16;;;;;;;14.35;2.90;;;9.80;95.10;;;;;;6239885;23;20012;-62
2024/02/01 11:18:10;;;;;;;6.15;2.33;;;9.90;95.10;;;;;;6240371;23;20220;-63
2024/02/01 11:20:57;;;;;;;7.05;2.10;;;9.90;94.90;;;;;;6241768;23;20016;-63
2024/02/01 11:23:43;;;;;;;9.93;3.17;;;9.80;94.60;;;;;;6243123;23;20462;-61
2024/02/01 11:26:37;;;;;;;7.10;2.72;;;9.80;94.30;;;;;;6238363;23;20559;-62
2024/02/01 11:29:27;;;;;;;8.98;3.47;;;9.80;94.50;;;;;;6241812;23;20008;-62
2024/02/01 11:32:19;;;;;;;9.07;2.83;;;9.80;94.70;;;;;;6240346;23;20086;-61
2024/02/01 11:35:05;;;;;;;7.68;2.60;;;9.90;94.20;;;;;;6240704;23;20008;-61
2024/02/01 11:38:01;;;;;;;9.68;2.78;;;9.90;94.10;;;;;;6241011;23;20031;-62
2024/02/01 11:40:46;;;;;;;8.23;2.50;;;9.90;93.80;;;;;;6242165;23;20095;-62
2024/02/01 11:43:33;;;;;;;6.72;2.53;;;10.00;93.90;;;;;;6241331;23;20135;-64
2024/02/01 11:46:19;;;;;;;8.27;2.58;;;10.10;93.90;;;;;;6220303;23;20004;-63
2024/02/01 11:49:05;;;;;;;9.90;2.90;;;10.10;93.80;;;;;;6241424;23;20015;-62
2024/02/01 11:52:13;;;;;;;12.02;3.08;;;10.20;93.70;;;;;;6240622;23;20031;-61
2024/02/01 11:54:59;;;;;;;11.63;2.58;;;10.20;93.60;;;;;;6240899;23;20012;-62
2024/02/01 11:57:47;;;;;;;7.43;2.40;;;10.30;93.90;;;;;;6242159;23;20079;-61
2024/02/01 12:00:37;;;;;;;9.68;2.83;;;10.30;93.70;;;;;;6241600;23;20039;-61
2024/02/01 12:03:29;;;;;;;6.05;2.60;;;10.40;93.60;;;;;;6240741;23;20016;-62
2024/02/01 12:06:17;;;;;;;7.75;2.85;;;10.40;93.20;;;;;;6242472;23;20004;-62
2024/02/01 12:09:06;;;;;;;9.93;3.20;;;10.40;93.30;;;;;;6242842;23;20103;-61
2024/02/01 12:11:54;;;;;;;9.85;3.38;;;10.50;93.20;;;;;;6240856;23;20012;-61
2024/02/01 12:14:40;;;;;;;8.85;3.10;;;10.50;92.80;;;;;;6241549;23;20004;-63
2024/02/01 12:17:26;;;;;;;7.95;3.30;;;10.50;92.50;;;;;;6237445;23;20024;-62
2024/02/01 12:20:13;;;;;;;10.35;3.25;;;10.40;92.40;;;;;;6241311;23;20012;-61
2024/02/01 12:23:02;;;;;;;10.10;3.20;;;10.40;92.40;;;;;;6241029;23;20437;-61
2024/02/01 12:25:49;;;;;;;10.00;3.20;;;10.40;92.30;;;;;;6242095;23;20023;-62
2024/02/01 12:28:35;;;;;;;8.20;2.72;;;10.30;92.20;;;;;;6240378;23;20012;-62
2024/02/01 12:31:22;;;;;;;8.13;2.45;;;10.30;92.00;;;;;;6240995;23;20008;-62
2024/02/01 12:34:13;;;;;;;14.43;3.78;;;10.20;92.00;;;;;;6241574;23;20015;-61
2024/02/01 12:36:59;;;;;;;7.50;2.88;;;10.10;91.70;;;;;;6240855;23;20008;-61
2024/02/01 12:39:44;;;;;;;8.23;2.38;;;10.00;91.90;;;;;;6239707;23;20043;-60
2024/02/01 12:42:32;;;;;;;12.70;3.45;;;10.10;92.10;;;;;;6239926;23;20016;-61
2024/02/01 12:45:19;;;;;;;9.45;2.53;;;10.00;92.10;;;;;;6238847;23;20016;-62
2024/02/01 12:48:06;;;;;;;11.73;2.88;;;10.00;92.30;;;;;;6239895;23;20008;-61
2024/02/01 12:50:52;;;;;;;9.40;3.00;;;10.10;92.20;;;;;;6240395;23;20261;-61
2024/02/01 12:53:39;;;;;;;9.85;2.83;;;10.10;92.00;;;;;;6219599;23;20008;-62
2024/02/01 12:56:26;;;;;;;10.73;2.90;;;10.10;92.10;;;;;;6241150;23;20040;-60
2024/02/01 12:59:12;;;;;;;13.50;3.03;;;10.00;92.10;;;;;;6242346;22;20019;-62
2024/02/01 13:01:58;;;;;;;8.82;2.22;;;10.10;92.20;;;;;;6240764;23;20009;-62
2024/02/01 13:04:44;;;;;;;6.95;2.88;;;10.10;92.20;;;;;;6238234;23;20285;-61
2024/02/01 13:07:30;;;;;;;9.75;3.25;;;10.20;92.10;;;;;;6239145;23;20008;-61
2024/02/01 13:10:17;;;;;;;8.57;3.30;;;10.20;92.20;;;;;;6241018;23;20012;-61
2024/02/01 13:13:03;;;;;;;8.45;2.88;;;10.30;92.20;;;;;;6242744;23;20086;-61
2024/02/01 13:15:51;;;;;;;9.85;2.65;;;10.30;92.10;;;;;;6240448;23;20039;-62
2024/02/01 13:18:36;;;;;;;8.60;2.72;;;10.40;92.20;;;;;;6241913;23;20020;-62
2024/02/01 13:21:22;;;;;;;8.98;2.75;;;10.40;91.80;;;;;;6239902;23;20016;-61
2024/02/01 13:24:08;;;;;;;11.05;3.63;;;10.50;91.80;;;;;;6237905;23;20103;-63
2024/02/01 13:26:54;;;;;;;8.05;3.47;;;10.50;91.70;;;;;;6241963;23;20012;-63
2024/02/01 13:29:44;;;;;;;8.80;3.20;;;10.50;91.40;;;;;;6241621;23;20373;-62
2024/02/01 13:32:30;;;;;;;12.35;3.15;;;10.50;91.40;;;;;;6238452;23;20042;-61
2024/02/01 13:35:16;;;;;;;8.60;3.13;;;10.50;91.10;;;;;;6239997;23;20098;-62
2024/02/01 13:38:05;;;;;;;9.30;3.20;;;10.50;91.20;;;;;;6239994;23;20415;-62
2024/02/01 13:40:51;;;;;;;11.18;4.18;;;10.40;91.10;;;;;;6239135;23;20503;-62
2024/02/01 13:43:37;;;;;;;10.30;3.58;;;10.50;91.30;;;;;;6238583;23;20024;-62
2024/02/01 13:46:23;;;;;;;6.88;3.05;;;10.50;91.40;;;;;;6239626;23;20019;-61
2024/02/01 13:49:09;;;;;;;6.70;3.05;;;10.50;90.90;;;;;;6239450;23;20012;-61
2024/02/01 13:51:55;;;;;;;8.68;2.25;;;10.50;91.10;;;;;;6239289;23;20096;-61
2024/02/01 13:54:41;;;;;;;7.65;2.92;;;10.50;90.80;;;;;;6240748;23;20012;-60
2024/02/01 13:57:27;;;;;;;7.68;2.67;;;10.40;90.90;;;;;;6219228;23;20015;-62
2024/02/01 14:00:16;;;;;;;11.32;2.80;;;10.40;90.80;;;;;;6239002;23;20012;-62
2024/02/01 14:03:03;;;;;;;8.73;2.35;;;10.40;90.90;;;;;;6240165;23;20008;-62
2024/02/01 14:05:49;;;;;;;8.10;2.50;;;10.40;90.80;;;;;;6239713;23;20009;-61
2024/02/01 14:08:35;;;;;;;7.70;2.80;;;10.40;90.80;;;;;;6238895;23;20008;-61
2024/02/01 14:11:21;;;;;;;10.55;2.63;;;10.40;90.90;;;;;;6238371;23;20016;-62
2024/02/01 14:14:07;;;;;;;16.42;3.10;;;10.50;90.90;;;;;;6240991;23;20012;-61
2024/02/01 14:16:53;;;;;;;13.45;3.15;;;10.40;90.80;;;;;;6240976;23;20426;-62
2024/02/01 14:19:39;;;;;;;9.82;3.10;;;10.40;90.80;;;;;;6241408;23;20087;-61
2024/02/01 14:22:25;;;;;;;10.32;4.47;;;10.40;90.70;;;;;;6241322;23;20000;-62
2024/02/01 14:25:12;;;;;;;8.82;3.22;;;10.30;90.60;;;;;;6237878;23;20016;-61
2024/02/01 14:27:57;;;;;;;13.95;3.28;;;10.30;90.80;;;;;;6239482;23;20008;-62
2024/02/01 14:30:43;;;;;;;8.48;2.78;;;10.30;90.90;;;;;;6238818;23;20012;-61
2024/02/01 14:33:29;;;;;;;13.73;3.75;;;10.30;90.70;;;;;;6239067;23;20012;-61
2024/02/01 14:36:16;;;;;;;13.52;3.42;;;10.20;90.80;;;;;;6239436;23;20012;-61
2024/02/01 14:39:20;;;;;;;8.68;2.75;;;10.20;90.90;;;;;;6238665;23;20012;-61
2024/02/01 14:42:07;;;;;;;9.45;3.15;;;10.20;90.90;;;;;;6239998;23;20008;-63
2024/02/01 14:44:53;;;;;;;11.48;3.55;;;10.20;91.00;;;;;;6239539;23;20024;-62
2024/02/01 14:47:40;;;;;;;12.63;3.97;;;10.20;90.90;;;;;;6240052;23;20393;-61
2024/02/01 14:50:26;;;;;;;11.63;3.08;;;10.10;91.00;;;;;;6240155;23;20337;-61
2024/02/01 14:53:12;;;;;;;14.80;3.30;;;10.10;91.00;;;;;;6237602;23;20021;-61
2024/02/01 14:55:58;;;;;;;7.80;3.03;;;10.10;91.10;;;;;;6239801;23;20059;-62
2024/02/01 14:58:44;;;;;;;11.88;3.53;;;10.10;91.10;;;;;;6240183;23;20027;-62
2024/02/01 15:01:30;;;;;;;9.93;3.70;;;10.10;91.10;;;;;;6237435;23;20008;-62
2024/02/01 15:04:16;;;;;;;10.68;3.63;;;10.10;91.10;;;;;;6238954;23;20023;-62
2024/02/01 15:07:02;;;;;;;13.55;4.28;;;10.00;91.10;;;;;;6238498;23;20012;-62
2024/02/01 15:09:48;;;;;;;12.35;3.97;;;9.90;91.10;;;;;;6242195;23;20039;-62
2024/02/01 15:12:34;;;;;;;13.27;3.55;;;9.90;91.20;;;;;;6240226;23;20004;-62
2024/02/01 15:15:23;;;;;;;12.55;3.88;;;9.90;91.20;;;;;;6240106;23;20472;-62
2024/02/01 15:18:09;;;;;;;14.38;5.28;;;9.90;91.30;;;;;;6241244;23;20430;-63
2024/02/01 15:20:56;;;;;;;13.30;4.07;;;10.00;91.30;;;;;;6241779;23;20019;-63